Prairie Grove, Texas
Current Conditions -  °F | °C
As of 11:55 PM on Tuesday 21 Oct 2014 (Local Time) from KLXY Reporting Station
Clear Clear  
Wind Chill: 65°   Ceiling: Unl
Heat Index: 65°   Visibility: 10mi
Dew Point: 60°   Wind: 3mph
Humidity: 84%   Direction: 80°E
Pressure: 30.06"   Gusts: NA
Location:  31.6887°N, 96.511°W
Report Text: KLXY 220455Z AUTO 08003KT 10SM CLR 19/16 A3006 RMK AO2 T01860158
Loading
Personal Weather Stations






























Interactive Weather Map
Tropical Storm Tracking
New forecast layout! Learn more

10-Day Weather Forecast

Advertisements
Track Severe Weather on mobile